Aeroporto :
LOGIN :

Iscrizione | Disclaimer

   EN    FR    IT 

 










Sommario :    VFR   VFR Marginale   IFR   IFR Intensivo   IFR Molto Intensivo
Visibilità : 
Base nubi : 
>= 8 km
>= 3000ft
5 / 8 km
1000 / 3000 ft
1500m / 5 km
500 / 1000 ft
800 / 1500m
200 / 500 ft
< 800m
< 200 ft
Simboli :   Temporali  Nebbia  Neve Forte  Precipitazioni Forti  Vento > 20 kt
SIGMETs :   Varie  Temporali  Ghiacco  Turbolenza  Onda orograficha  Ceneri Vulcaniche






- Altitudine del aeroporto : 291 ft
- Codice IATA : ORY


LFPO - Paris-Orly

ULTIMO METAR :
  • 220500Z 24001KT 9999 FEW026 SCT053 BKN110 16/14 Q1011 NOSIG

METARs OBSOLETI :
  • 220430Z 24003KT 9999 FEW026 SCT060 BKN120 16/14 Q1011 NOSIG
  • 220400Z 25002KT CAVOK 15/14 Q1010 NOSIG
  • 220330Z 33001KT CAVOK 15/14 Q1010 NOSIG
  • 220300Z VRB02KT CAVOK 15/14 Q1010 NOSIG
  • 220230Z 25003KT CAVOK 14/13 Q1010 NOSIG

TAF TAF LFPO
Valido dal 22 a 00 ore il 23 a 06 ore UTC


212300Z 2200/2306 01005KT 9999 SCT020 SCT040
TEMPO 2200/2218 4000 SHRA BKN012 BKN020TCU
PROB30
TEMPO 2203/2208 2000 TSRA BKN004 BKN020CB
PROB40
TEMPO 2208/2218 02015G25KT 2000 TSRA BKN011 BKN020CB
PROB40
TEMPO 2218/2306 BKN008
PROB30
TEMPO 2302/2306 BKN004
ATIS : +33 1 49 75 65 80



MetMap, La meteo Aeronautica in un colpo d'occhio ! - Copyright ORBIFLY Dicembre 2007 - Disclaimer

ORBIFLY MET'MAP TEAM :

Programmazione e sviluppo : Alexandra Zaïnal
Concezione : Baudouin d'Aumeries
Aiuto per la programmazione : Marc-Olivier Méhu
Supporto tecnico e logistico : Manuel Goepfert
Aiuto per la traduzione : Arnaldo La Scala

Contatto : metmap@orbifly.com




FONTI E CREDITI :

   NOAA